Al, Norway

5:24 PM CEST on August 30, 2016 (GMT +0200)
Aal i Hallingdal | | Change Station

Elev 1475 ft 60.62 °N, 8.52 °E | Updated 9 minutes ago

Overcast
Overcast
63.3 °F
Feels Like 63.3 °F
N
4.0
Wind Variable Wind from SW
Gusts 13.0 mph

Today
High -- | Low -- °F
--% Chance of Precip.
Yesterday
High -- | Low -- °F
Precip. -- in
Pressure 29.98 in
Visibility 6.2 miles
Clouds Scattered Clouds 500 ft
Mostly Cloudy 1200 ft
Dew Point 53 °F
Humidity 69%
Rainfall 0.00 in
Snow Depth Not available.
6:14 AM 8:35 PM
Waning Crescent, 3% visible
METAR ENSG 301450Z 23007KT 9999 -RA FEW/// SCT005 BKN012 12/12 Q1015 RMK
Pressure 29.98 in
Visibility 6.2 miles
Clouds Scattered Clouds 500 ft
Mostly Cloudy 1200 ft
Dew Point 53 °F
Humidity 69%
Rainfall 0.00 in
Snow Depth Not available.
6:14 AM 8:35 PM
Waning Crescent, 3% visible
METAR ENSG 301450Z 23007KT 9999 -RA FEW/// SCT005 BKN012 12/12 Q1015 RMK

10-Day Weather Forecast

×

Almanac

Astronomy

Aug. 30, 2016 Rise Set
Actual Time
Civil Twilight
Nautical Twilight
Astronomical Twilight
Moon
Length of Visible Light
Length of Day
Tomorrow will be .
, % of the Moon is Illuminated

Today's Extremes

Country Highs Country Lows

Community

WunderPhotos

Upload Photos

1,935,855 photos uploaded!

WunderBlog® & News

Nearby

Air Quality

  Air Quality AQ Index Pollutant
Not available.

Snow Depth

Station Depth Elevation

Earthquake Activity

City Distance Mag. Time & Date
Minimum magnitude displayed is 2.5.

Coastal Water Temperatures

Place Temperature

Stations

Nearby Weather Stations

Station Location Temp. Windchill Dew Point Humidity Wind Precip. Elev Updated Type